»·PEaware :: N261MG KEUG-KSJC

N261MG :: KEUG-KSJC

FLIGHT INFORMATION

Flight Status: Arrived
Operator: Privately registered:
United States
More flights under this callsign
Pilot: Marty O. (15602)
Aircraft: ECLIPSE 500
(EA50)
More flights by this aircraft type
Origin: KEUG Mahlon Sweet
United States
Destination: KSJC Mineta San Jose Intl
United States
More flights between these airports :: More routes between these airports
Route: EUG1 RBG CHBLI BRIXX2
File this flight plan on PilotEdge
Remarks:
Altitude:
(Current/Filed)
29,000ft
Speed:
(Current/Filed)
360kts
Departed: 02-Oct-20 07:28 PM
Arrived: 02-Oct-20 09:01 PM
Distance/Time
Traveled:
410nm/1:33
Distance/Time
To Go:
Arrived

Flight Plot

Page will automatically refresh every two minutes.

Flight plan parsing failed; only flown route is shown


Map Options




Map Legend


Flown Route
Filed Route
Departure Airport
Arrival Airport
Navaid (VOR, NDB)
Fix

Horizontal Profiles

Position Reports

Time Latitude Longitude Heading Altitude Ground
Speed
02-Oct-20 19:08 44.117920 -123.215198 42 377ft 0kts
02-Oct-20 19:09 44.117920 -123.215198 42 377ft 0kts
02-Oct-20 19:10 44.117920 -123.215198 42 377ft 0kts
02-Oct-20 19:11 44.117920 -123.215198 42 377ft 0kts
02-Oct-20 19:12 44.117920 -123.215198 42 377ft 0kts
02-Oct-20 19:13 44.117920 -123.215198 42 377ft 0kts
02-Oct-20 19:14 44.117920 -123.215198 42 377ft 0kts
02-Oct-20 19:15 44.117920 -123.215198 42 377ft 0kts
02-Oct-20 19:16 44.117920 -123.215198 42 377ft 0kts
02-Oct-20 19:17 44.117920 -123.215198 42 377ft 0kts
02-Oct-20 19:18 44.117920 -123.215198 42 377ft 0kts
02-Oct-20 19:19 44.118623 -123.215350 313 377ft 1kts
02-Oct-20 19:20 44.117805 -123.216937 295 377ft 4kts
02-Oct-20 19:21 44.120488 -123.216977 0 377ft 22kts
02-Oct-20 19:22 44.126880 -123.217088 0 377ft 6kts
02-Oct-20 19:23 44.132603 -123.217207 359 377ft 27kts
02-Oct-20 19:24 44.135303 -123.217824 274 377ft 4kts
02-Oct-20 19:25 44.135305 -123.217901 272 377ft 0kts
02-Oct-20 19:26 44.135307 -123.218422 269 377ft 7kts
02-Oct-20 19:27 44.131647 -123.219136 178 377ft 48kts
02-Oct-20 19:28 44.094235 -123.218156 179 1947ft 173kts
02-Oct-20 19:29 44.043116 -123.214899 179 5134ft 188kts
02-Oct-20 19:30 43.989422 -123.208384 178 8304ft 189kts
02-Oct-20 19:31 43.933043 -123.207764 191 11274ft 187kts
02-Oct-20 19:32 43.883403 -123.217350 190 14148ft 170kts
02-Oct-20 19:33 43.835430 -123.226637 190 16391ft 173kts
02-Oct-20 19:34 43.786528 -123.236119 189 18442ft 177kts
02-Oct-20 19:35 43.736244 -123.245866 189 20324ft 181kts
02-Oct-20 19:36 43.685841 -123.255625 189 22080ft 183kts
02-Oct-20 19:37 43.634091 -123.265631 188 23650ft 188kts
02-Oct-20 19:38 43.581300 -123.275821 188 25098ft 193kts
02-Oct-20 19:39 43.526607 -123.286361 188 26461ft 198kts
02-Oct-20 19:40 43.471535 -123.296954 188 27711ft 203kts
02-Oct-20 19:41 43.413831 -123.308032 188 28892ft 208kts
02-Oct-20 19:42 43.349434 -123.320368 188 29104ft 256kts
02-Oct-20 19:43 43.270981 -123.335362 188 29102ft 301kts
02-Oct-20 19:44 43.182285 -123.351623 181 29095ft 331kts
02-Oct-20 19:45 43.085294 -123.333935 173 29099ft 352kts
02-Oct-20 19:46 42.983109 -123.314665 173 29098ft 365kts
02-Oct-20 19:47 42.878460 -123.295023 173 29101ft 372kts
02-Oct-20 19:48 42.772971 -123.275293 173 29101ft 377kts
02-Oct-20 19:49 42.664282 -123.255040 173 29101ft 380kts
02-Oct-20 19:50 42.555968 -123.234927 173 29100ft 381kts
02-Oct-20 19:51 42.449469 -123.215220 173 29100ft 382kts
02-Oct-20 19:52 42.342395 -123.195476 173 29099ft 383kts
02-Oct-20 19:53 42.235310 -123.175796 173 29099ft 383kts
02-Oct-20 19:54 42.127226 -123.156008 172 29104ft 383kts
02-Oct-20 19:55 42.018287 -123.136119 172 29104ft 384kts
02-Oct-20 19:56 41.907359 -123.115949 172 29108ft 385kts
02-Oct-20 19:57 41.798664 -123.096243 172 29110ft 386kts
02-Oct-20 19:58 41.688742 -123.076388 172 29110ft 387kts
02-Oct-20 19:59 41.579598 -123.056742 172 29110ft 387kts
02-Oct-20 20:00 41.470989 -123.037258 172 29109ft 387kts
02-Oct-20 20:01 41.362617 -123.017883 172 29109ft 387kts
02-Oct-20 20:02 41.252337 -122.998233 172 29109ft 387kts
02-Oct-20 20:03 41.142180 -122.978672 172 29108ft 387kts
02-Oct-20 20:04 41.031108 -122.959015 172 29108ft 387kts
02-Oct-20 20:05 40.922016 -122.939773 172 29108ft 387kts
02-Oct-20 20:06 40.812282 -122.920484 172 29110ft 388kts
02-Oct-20 20:07 40.701663 -122.901104 172 29110ft 388kts
02-Oct-20 20:08 40.590859 -122.881757 172 29110ft 388kts
02-Oct-20 20:09 40.481753 -122.862768 172 29109ft 388kts
02-Oct-20 20:10 40.372719 -122.843854 172 29109ft 388kts
02-Oct-20 20:11 40.264557 -122.825159 172 28968ft 392kts
02-Oct-20 20:12 40.155577 -122.806370 172 28971ft 392kts
02-Oct-20 20:13 40.046836 -122.787687 172 28971ft 392kts
02-Oct-20 20:14 39.937130 -122.768902 172 28971ft 392kts
02-Oct-20 20:15 39.826771 -122.750067 172 28973ft 392kts
02-Oct-20 20:16 39.716837 -122.731367 172 28985ft 392kts
02-Oct-20 20:17 39.606240 -122.712612 172 28998ft 392kts
02-Oct-20 20:18 39.496849 -122.694121 172 29004ft 392kts
02-Oct-20 20:19 39.387359 -122.675671 172 29003ft 392kts
02-Oct-20 20:20 39.276016 -122.656968 172 29003ft 392kts
02-Oct-20 20:21 39.164266 -122.638255 172 29003ft 392kts
02-Oct-20 20:22 39.050940 -122.619341 172 28620ft 400kts
02-Oct-20 20:23 38.937857 -122.600531 172 28455ft 399kts
02-Oct-20 20:24 38.826515 -122.582069 172 28145ft 389kts
02-Oct-20 20:25 38.716863 -122.563947 172 28004ft 393kts
02-Oct-20 20:26 38.606003 -122.545662 173 27974ft 395kts
02-Oct-20 20:27 38.493360 -122.536327 178 26873ft 403kts
02-Oct-20 20:28 38.380381 -122.532569 178 24972ft 393kts
02-Oct-20 20:29 38.271176 -122.528907 178 23057ft 380kts
02-Oct-20 20:31 38.164645 -122.525338 178 21665ft 380kts
02-Oct-20 20:32 38.062092 -122.521877 177 19460ft 324kts
02-Oct-20 20:33 37.971596 -122.515180 176 17904ft 317kts
02-Oct-20 20:34 37.882255 -122.508557 176 16356ft 310kts
02-Oct-20 20:35 37.794363 -122.502061 175 14805ft 303kts
02-Oct-20 20:36 37.714127 -122.477231 139 13254ft 295kts
02-Oct-20 20:37 37.652862 -122.411800 139 12000ft 287kts
02-Oct-20 20:38 37.585623 -122.357381 156 11981ft 289kts
02-Oct-20 20:39 37.511352 -122.318279 157 11982ft 289kts
02-Oct-20 20:40 37.444421 -122.264036 143 10988ft 283kts
02-Oct-20 20:41 37.388206 -122.210939 143 9960ft 222kts
02-Oct-20 20:42 37.338226 -122.164360 143 8961ft 225kts
02-Oct-20 20:43 37.291452 -122.117164 133 7178ft 200kts
02-Oct-20 20:44 37.253901 -122.070494 133 5998ft 181kts
02-Oct-20 20:45 37.213403 -122.020127 133 5995ft 214kts
02-Oct-20 20:46 37.173747 -121.962413 113 5997ft 216kts
02-Oct-20 20:47 37.148249 -121.892963 113 5995ft 215kts
02-Oct-20 20:47 37.126922 -121.834832 112 5995ft 215kts
02-Oct-20 20:48 37.100962 -121.764479 112 4990ft 179kts
02-Oct-20 20:50 37.106596 -121.703071 50 4993ft 165kts
02-Oct-20 20:50 37.143775 -121.706189 342 4636ft 181kts
02-Oct-20 20:51 37.182680 -121.733330 321 3995ft 155kts
02-Oct-20 20:53 37.215531 -121.769081 321 3741ft 161kts
02-Oct-20 20:53 37.234851 -121.790186 321 3265ft 160kts
02-Oct-20 20:54 37.259825 -121.817397 320 2624ft 164kts
02-Oct-20 20:55 37.283543 -121.843344 320 1994ft 138kts
02-Oct-20 20:56 37.300570 -121.861802 320 1540ft 100kts
02-Oct-20 20:57 37.315694 -121.878421 317 1158ft 98kts
02-Oct-20 20:58 37.331584 -121.895844 318 754ft 96kts
02-Oct-20 20:59 37.348285 -121.914125 318 323ft 96kts
02-Oct-20 21:00 37.362240 -121.929443 287 65ft 21kts
02-Oct-20 21:01 37.362033 -121.931017 224 65ft 0kts
02-Oct-20 21:02 37.361211 -121.932141 221 65ft 7kts
02-Oct-20 21:03 37.360348 -121.931790 140 65ft 17kts
02-Oct-20 21:04 37.357686 -121.929533 222 65ft 5kts
02-Oct-20 21:05 37.357616 -121.929614 223 65ft 0kts
02-Oct-20 21:06 37.357616 -121.929614 223 65ft 0kts
02-Oct-20 21:07 37.357616 -121.929614 223 65ft 0kts
02-Oct-20 21:08 37.357616 -121.929614 223 65ft 0kts
02-Oct-20 21:09 37.357616 -121.929614 223 65ft 0kts
02-Oct-20 21:10 37.357616 -121.929614 223 65ft 0kts
02-Oct-20 21:11 37.357616 -121.929614 223 65ft 0kts
02-Oct-20 21:12 37.357616 -121.929614 223 65ft 0kts
02-Oct-20 21:13 37.357616 -121.929614 223 65ft 0kts
02-Oct-20 21:14 37.357616 -121.929614 223 65ft 0kts
02-Oct-20 21:15 37.357616 -121.929614 223 65ft 0kts

Navigation Log

Ident Type
Flight plan parsing failed, navigation log unavailable